createdAt,value
2023-01-28T00:01:43.349Z,2.55
2023-01-28T00:04:46.179Z,2.52
2023-01-28T00:07:51.857Z,2.40
2023-01-28T00:10:54.596Z,2.46
2023-01-28T00:13:57.220Z,2.48
2023-01-28T00:17:00.158Z,2.45
2023-01-28T00:20:02.924Z,2.50
2023-01-28T00:23:07.423Z,2.51
2023-01-28T00:26:13.494Z,2.50
2023-01-28T00:29:16.280Z,2.42
2023-01-28T00:32:18.992Z,2.42
2023-01-28T00:35:21.494Z,2.47
2023-01-28T00:38:25.664Z,2.44
2023-01-28T00:41:30.035Z,2.38
2023-01-28T00:44:32.879Z,2.33
2023-01-28T00:47:35.627Z,2.38
2023-01-28T00:50:39.436Z,2.48
2023-01-28T00:53:43.384Z,2.47
2023-01-28T00:56:46.454Z,2.45
2023-01-28T00:59:49.007Z,2.38
2023-01-28T01:02:51.670Z,2.45
2023-01-28T01:05:54.204Z,2.45
2023-01-28T01:09:03.583Z,2.43
2023-01-28T01:12:06.634Z,2.37
2023-01-28T01:15:12.525Z,2.42
2023-01-28T01:18:15.479Z,2.33
2023-01-28T01:21:20.304Z,2.41
2023-01-28T01:24:24.398Z,2.45
2023-01-28T01:27:26.981Z,2.51
2023-01-28T01:30:29.624Z,2.55
2023-01-28T01:33:32.908Z,2.56
2023-01-28T01:36:35.609Z,2.54
2023-01-28T01:39:39.593Z,2.59
2023-01-28T01:42:42.246Z,2.63
2023-01-28T01:45:45.879Z,2.61
2023-01-28T01:48:48.810Z,2.47
2023-01-28T01:51:55.504Z,2.52
2023-01-28T01:55:00.846Z,2.47
2023-01-28T01:58:08.197Z,2.54
2023-01-28T02:01:11.684Z,2.54
2023-01-28T02:04:20.214Z,2.52
2023-01-28T02:07:23.098Z,2.55
2023-01-28T02:10:27.163Z,2.65
2023-01-28T02:13:33.076Z,2.62
2023-01-28T02:16:35.997Z,2.50
2023-01-28T02:19:40.892Z,2.60
2023-01-28T02:23:05.822Z,2.63
2023-01-28T02:26:22.665Z,2.55
2023-01-28T02:29:28.892Z,2.63
2023-01-28T02:32:36.197Z,2.65
2023-01-28T02:35:43.147Z,2.72
2023-01-28T02:38:48.928Z,2.74
2023-01-28T02:41:56.384Z,2.74
2023-01-28T02:45:00.460Z,2.56
2023-01-28T02:48:02.128Z,2.62
2023-01-28T02:51:11.856Z,2.64
2023-01-28T02:54:18.825Z,2.60
2023-01-28T02:57:31.666Z,2.62
2023-01-28T03:00:45.179Z,2.65
2023-01-28T03:03:57.167Z,2.68
2023-01-28T03:07:04.261Z,2.61
2023-01-28T03:10:10.410Z,2.63
2023-01-28T03:13:30.500Z,2.63
2023-01-28T03:16:52.575Z,2.64
2023-01-28T03:20:13.071Z,2.54
2023-01-28T03:23:36.759Z,2.48
2023-01-28T03:27:01.661Z,2.51
2023-01-28T03:30:28.063Z,2.57
2023-01-28T03:33:50.727Z,2.43
2023-01-28T03:36:54.588Z,2.38
2023-01-28T03:39:58.222Z,2.38
2023-01-28T03:43:00.861Z,2.41
2023-01-28T03:46:06.217Z,2.43
2023-01-28T03:49:10.283Z,2.37
2023-01-28T03:52:13.356Z,2.42
2023-01-28T03:55:16.799Z,2.41
2023-01-28T03:58:20.490Z,2.38
2023-01-28T04:01:23.098Z,2.37
2023-01-28T04:04:28.161Z,2.32
2023-01-28T04:07:30.849Z,2.39
2023-01-28T04:10:33.432Z,2.45
2023-01-28T04:13:35.994Z,2.45
2023-01-28T04:16:38.581Z,2.45
2023-01-28T04:19:42.833Z,2.44
2023-01-28T04:22:45.552Z,2.49
2023-01-28T04:25:51.099Z,2.49
2023-01-28T04:28:53.780Z,2.53
2023-01-28T04:31:56.987Z,2.53
2023-01-28T04:35:00.928Z,2.49
2023-01-28T04:38:03.532Z,2.58
2023-01-28T04:41:06.411Z,2.53
2023-01-28T04:44:09.968Z,2.65
2023-01-28T04:47:12.587Z,2.61
2023-01-28T04:50:17.293Z,2.47
2023-01-28T04:53:20.008Z,2.36
2023-01-28T04:56:22.653Z,2.40
2023-01-28T04:59:25.529Z,2.48
2023-01-28T05:02:28.307Z,2.53
2023-01-28T05:05:32.323Z,2.49
2023-01-28T05:08:35.049Z,2.51
2023-01-28T05:11:39.245Z,2.45
2023-01-28T05:14:42.152Z,2.50
2023-01-28T05:17:45.050Z,2.52
2023-01-28T05:20:49.017Z,2.50
2023-01-28T05:23:51.574Z,2.51
2023-01-28T05:26:54.378Z,2.47
2023-01-28T05:29:57.066Z,2.49
2023-01-28T05:32:59.820Z,2.48
2023-01-28T05:36:04.061Z,2.35
2023-01-28T05:39:07.629Z,2.37
2023-01-28T05:42:10.429Z,2.33
2023-01-28T05:45:13.881Z,2.34
2023-01-28T05:48:16.709Z,2.37
2023-01-28T05:51:20.894Z,2.42
2023-01-28T05:54:23.454Z,2.42
2023-01-28T05:57:26.130Z,2.46
2023-01-28T06:00:29.121Z,2.45
2023-01-28T06:03:31.884Z,2.42
2023-01-28T06:06:35.981Z,2.46
2023-01-28T06:09:38.711Z,2.45
2023-01-28T06:12:41.464Z,2.44
2023-01-28T06:15:44.340Z,2.50
2023-01-28T06:18:47.038Z,2.53
2023-01-28T06:21:51.013Z,2.54
2023-01-28T06:24:53.891Z,2.60
2023-01-28T06:27:56.573Z,2.65
2023-01-28T06:30:59.380Z,2.68
2023-01-28T06:34:02.000Z,2.66
2023-01-28T06:37:06.102Z,2.62
2023-01-28T06:40:10.326Z,2.63
2023-01-28T06:43:12.983Z,2.66
2023-01-28T06:46:15.802Z,2.68
2023-01-28T06:49:18.452Z,2.59
2023-01-28T06:52:22.736Z,2.55
2023-01-28T06:55:25.524Z,2.58
2023-01-28T06:58:28.756Z,2.60
2023-01-28T07:01:31.589Z,2.65
2023-01-28T07:04:34.319Z,2.67
2023-01-28T07:07:40.739Z,2.74
2023-01-28T07:10:44.712Z,2.64
2023-01-28T07:13:47.500Z,2.69
2023-01-28T07:16:50.317Z,2.75
2023-01-28T07:19:53.012Z,2.79
2023-01-28T07:22:56.992Z,2.84
2023-01-28T07:26:03.020Z,2.89
2023-01-28T07:29:05.637Z,2.94
2023-01-28T07:32:08.515Z,2.92
2023-01-28T07:35:11.783Z,3.01
2023-01-28T07:38:16.256Z,3.12
2023-01-28T07:41:18.993Z,3.13
2023-01-28T07:44:22.025Z,3.18
2023-01-28T07:47:24.622Z,3.22
2023-01-28T07:50:29.105Z,3.25
2023-01-28T07:53:33.525Z,3.39
2023-01-28T07:56:36.252Z,3.24
2023-01-28T07:59:39.224Z,3.20
2023-01-28T08:02:44.994Z,3.06
2023-01-28T08:05:49.162Z,3.22
2023-01-28T08:08:53.329Z,3.33
2023-01-28T08:11:56.012Z,3.39
2023-01-28T08:14:58.708Z,3.46
2023-01-28T08:18:01.853Z,3.60
2023-01-28T08:21:05.501Z,3.81
2023-01-28T08:24:09.806Z,3.86
2023-01-28T08:27:12.509Z,3.93
2023-01-28T08:30:15.887Z,3.89
2023-01-28T08:33:19.948Z,4.10
2023-01-28T08:36:22.348Z,4.14
2023-01-28T08:39:26.387Z,4.19
2023-01-28T08:42:28.998Z,4.40
2023-01-28T08:45:32.053Z,4.18
2023-01-28T08:48:34.696Z,4.18
2023-01-28T08:51:37.366Z,4.55
2023-01-28T08:54:41.352Z,4.71
2023-01-28T08:57:44.160Z,4.70
2023-01-28T09:00:47.506Z,4.77
2023-01-28T09:03:50.413Z,4.93
2023-01-28T09:06:53.218Z,4.92
2023-01-28T09:09:57.204Z,5.18
2023-01-28T09:12:59.881Z,5.43
2023-01-28T09:16:06.093Z,5.63
2023-01-28T09:19:08.841Z,5.67
2023-01-28T09:22:11.787Z,5.87
2023-01-28T09:25:15.770Z,5.86
2023-01-28T09:28:18.611Z,6.00
2023-01-28T09:31:21.399Z,5.84
2023-01-28T09:34:24.006Z,5.75
2023-01-28T09:37:26.815Z,5.67
2023-01-28T09:40:36.002Z,5.56
2023-01-28T09:43:51.713Z,5.53
2023-01-28T09:46:54.381Z,5.66
2023-01-28T09:50:00.337Z,5.70
2023-01-28T09:53:06.959Z,5.76
2023-01-28T09:56:14.641Z,5.47
2023-01-28T09:59:20.239Z,5.63
2023-01-28T10:02:39.150Z,5.59
2023-01-28T10:05:48.253Z,5.41
2023-01-28T10:09:22.564Z,5.42
2023-01-28T10:12:40.726Z,5.29
2023-01-28T10:15:51.570Z,5.30
2023-01-28T10:18:57.386Z,5.12
2023-01-28T10:22:03.332Z,5.00
2023-01-28T10:25:09.588Z,4.86
2023-01-28T10:28:20.182Z,4.93
2023-01-28T10:31:23.770Z,4.95
2023-01-28T10:34:26.804Z,5.13
2023-01-28T10:37:30.168Z,5.13
2023-01-28T10:40:33.051Z,5.15
2023-01-28T10:43:39.713Z,5.29
2023-01-28T10:46:45.560Z,5.47
2023-01-28T10:49:51.934Z,5.25
2023-01-28T10:52:56.072Z,5.48
2023-01-28T10:56:01.399Z,5.49
2023-01-28T10:59:07.598Z,5.54
2023-01-28T11:02:26.017Z,5.67
2023-01-28T11:05:30.856Z,5.49
2023-01-28T11:08:44.898Z,5.37
2023-01-28T11:11:47.544Z,5.36
2023-01-28T11:14:56.990Z,5.49
2023-01-28T11:18:02.137Z,5.81
2023-01-28T11:21:06.589Z,5.98
2023-01-28T11:24:16.209Z,6.25
2023-01-28T11:27:20.032Z,6.28
2023-01-28T11:30:27.606Z,6.03
2023-01-28T11:33:34.129Z,5.74
2023-01-28T11:36:36.804Z,5.32
2023-01-28T11:39:40.869Z,5.17
2023-01-28T11:42:43.654Z,5.00
2023-01-28T11:45:53.612Z,4.96
2023-01-28T11:49:02.310Z,5.33
2023-01-28T11:52:14.004Z,5.35
2023-01-28T11:55:33.409Z,5.35
2023-01-28T11:58:45.273Z,5.29
2023-01-28T12:01:53.603Z,5.34
2023-01-28T12:05:10.007Z,5.23
2023-01-28T12:08:19.594Z,4.94
2023-01-28T12:12:00.031Z,4.84
2023-01-28T12:15:26.169Z,4.88
2023-01-28T12:18:50.604Z,4.58
2023-01-28T12:22:07.061Z,4.75
2023-01-28T12:25:21.530Z,4.84
2023-01-28T12:28:30.733Z,4.75
2023-01-28T12:31:43.409Z,4.64
2023-01-28T12:35:00.120Z,4.66
2023-01-28T12:38:10.281Z,4.78
2023-01-28T12:41:16.327Z,4.67
2023-01-28T12:44:23.695Z,4.81
2023-01-28T12:47:30.193Z,4.89
2023-01-28T12:50:37.877Z,5.20
2023-01-28T12:53:43.923Z,5.06
2023-01-28T12:56:51.178Z,4.99
2023-01-28T12:59:57.830Z,4.88
2023-01-28T13:03:10.887Z,4.96
2023-01-28T13:06:18.024Z,4.73
2023-01-28T13:09:22.958Z,4.91
2023-01-28T13:12:25.734Z,5.08
2023-01-28T13:15:28.758Z,4.87
2023-01-28T13:18:34.938Z,5.01
2023-01-28T13:21:48.635Z,4.93
2023-01-28T13:24:52.097Z,4.68
2023-01-28T13:28:00.249Z,4.70
2023-01-28T13:31:04.817Z,4.64
2023-01-28T13:34:08.830Z,4.69
2023-01-28T13:37:26.123Z,5.07
2023-01-28T13:40:30.172Z,5.06
2023-01-28T13:43:38.666Z,4.98
2023-01-28T13:46:41.406Z,4.79
2023-01-28T13:49:45.972Z,4.77
2023-01-28T13:52:57.210Z,4.54
2023-01-28T13:56:00.219Z,4.46
2023-01-28T13:59:15.585Z,4.60
2023-01-28T14:02:52.816Z,4.54
2023-01-28T14:06:22.937Z,4.41
2023-01-28T14:09:54.219Z,4.52
2023-01-28T14:13:21.351Z,4.45
2023-01-28T14:16:31.789Z,4.44
2023-01-28T14:19:38.119Z,4.53
2023-01-28T14:22:42.480Z,4.52
2023-01-28T14:25:55.476Z,4.59
2023-01-28T14:29:06.387Z,4.57
2023-01-28T14:32:14.507Z,4.52
2023-01-28T14:35:21.416Z,4.66
2023-01-28T14:38:25.392Z,4.78
2023-01-28T14:41:29.827Z,4.92
2023-01-28T14:44:40.671Z,4.82
2023-01-28T14:48:00.866Z,4.58
2023-01-28T14:51:13.521Z,4.37
2023-01-28T14:54:26.699Z,4.00
2023-01-28T14:57:55.750Z,4.20
2023-01-28T15:01:00.897Z,4.09
2023-01-28T15:04:03.899Z,4.10
2023-01-28T15:07:17.689Z,4.07
2023-01-28T15:10:49.233Z,4.10
2023-01-28T15:21:17.003Z,4.22
2023-01-28T15:24:19.865Z,4.22
2023-01-28T15:27:28.431Z,4.14
2023-01-28T15:30:32.478Z,3.99
2023-01-28T15:33:35.263Z,3.92
2023-01-28T15:36:39.617Z,3.90
2023-01-28T15:39:42.296Z,3.86
2023-01-28T15:42:46.969Z,3.82
2023-01-28T15:45:51.387Z,3.76
2023-01-28T15:49:00.410Z,3.76
2023-01-28T15:52:05.095Z,3.63
2023-01-28T15:55:30.012Z,3.59
2023-01-28T16:02:41.366Z,3.71
2023-01-28T16:05:56.855Z,3.68
2023-01-28T16:09:02.963Z,3.69
2023-01-28T16:12:31.243Z,3.75
2023-01-28T16:15:36.596Z,3.71
2023-01-28T16:18:55.373Z,3.84
2023-01-28T16:22:14.068Z,3.69
2023-01-28T16:25:35.950Z,3.60
2023-01-28T16:29:14.142Z,3.68
2023-01-28T16:32:49.868Z,3.63
2023-01-28T16:39:49.047Z,3.52
2023-01-28T16:42:55.080Z,3.58
2023-01-28T16:46:09.337Z,3.50
2023-01-28T16:49:20.379Z,3.56
2023-01-28T16:52:22.949Z,3.56
2023-01-28T16:55:25.697Z,3.60
2023-01-28T16:58:29.985Z,3.61
2023-01-28T17:01:32.757Z,3.56
2023-01-28T17:04:35.511Z,3.60
2023-01-28T17:07:38.267Z,3.63
2023-01-28T17:10:40.833Z,3.63
2023-01-28T17:13:44.906Z,3.61
2023-01-28T17:16:47.346Z,3.60
2023-01-28T17:19:50.170Z,3.53
2023-01-28T17:22:52.863Z,3.47
2023-01-28T17:25:55.466Z,3.38
2023-01-28T17:28:59.839Z,3.29
2023-01-28T17:32:02.673Z,3.29
2023-01-28T17:35:06.407Z,3.21
2023-01-28T17:38:10.391Z,3.29
2023-01-28T17:41:14.795Z,3.28
2023-01-28T17:44:19.685Z,3.33
2023-01-28T17:47:22.344Z,3.41
2023-01-28T17:50:24.981Z,3.23
2023-01-28T17:53:27.662Z,3.23
2023-01-28T17:56:31.201Z,3.26
2023-01-28T17:59:35.207Z,3.26
2023-01-28T18:02:37.773Z,3.23
2023-01-28T18:05:40.451Z,3.28
2023-01-28T18:08:43.208Z,3.25
2023-01-28T18:11:46.182Z,3.19
2023-01-28T18:14:50.422Z,3.10
2023-01-28T18:17:53.499Z,3.11
2023-01-28T18:20:58.819Z,3.08
2023-01-28T18:24:02.405Z,3.03
2023-01-28T18:27:05.175Z,3.03
2023-01-28T18:30:11.223Z,3.08
2023-01-28T18:33:13.886Z,3.16
2023-01-28T18:36:17.097Z,3.11
2023-01-28T18:39:20.987Z,3.08
2023-01-28T18:42:23.587Z,3.10
2023-01-28T18:45:27.796Z,3.14
2023-01-28T18:48:30.915Z,3.17
2023-01-28T18:51:33.537Z,3.26
2023-01-28T18:54:36.555Z,3.21
2023-01-28T18:57:39.939Z,3.21
2023-01-28T19:00:43.974Z,3.16
2023-01-28T19:03:46.920Z,3.20
2023-01-28T19:06:49.950Z,3.22
2023-01-28T19:09:52.536Z,3.12
2023-01-28T19:12:55.329Z,3.16
2023-01-28T19:16:02.537Z,3.19
2023-01-28T19:19:05.489Z,3.19
2023-01-28T19:22:08.506Z,3.14
2023-01-28T19:25:11.392Z,3.16
2023-01-28T19:28:14.124Z,3.08
2023-01-28T19:31:19.720Z,3.17
2023-01-28T19:34:22.398Z,3.14
2023-01-28T19:37:25.613Z,3.07
2023-01-28T19:40:28.497Z,3.07
2023-01-28T19:43:31.456Z,3.01
2023-01-28T19:46:37.110Z,3.07
2023-01-28T19:49:39.851Z,3.06
2023-01-28T19:52:42.699Z,3.07
2023-01-28T19:55:45.412Z,2.99
2023-01-28T19:58:48.161Z,3.09
2023-01-28T20:01:52.564Z,3.13
2023-01-28T20:05:00.866Z,3.15
2023-01-28T20:08:04.630Z,3.01
2023-01-28T20:11:09.056Z,2.98
2023-01-28T20:14:11.899Z,2.90
2023-01-28T20:17:15.974Z,2.84
2023-01-28T20:20:18.905Z,2.84
2023-01-28T20:23:21.836Z,2.90
2023-01-28T20:26:26.127Z,2.87
2023-01-28T20:29:28.728Z,2.81
2023-01-28T20:32:33.544Z,2.78
2023-01-28T20:35:36.517Z,2.69
2023-01-28T20:38:40.428Z,2.67
2023-01-28T20:41:43.050Z,2.67
2023-01-28T20:44:45.624Z,2.66
2023-01-28T20:47:50.019Z,2.62
2023-01-28T20:50:52.706Z,2.67
2023-01-28T20:53:55.949Z,2.67
2023-01-28T20:56:58.637Z,2.43
2023-01-28T21:00:01.216Z,2.51
2023-01-28T21:03:05.300Z,2.48
2023-01-28T21:06:08.213Z,2.47
2023-01-28T21:09:11.101Z,2.48
2023-01-28T21:12:14.011Z,2.42
2023-01-28T21:15:17.028Z,2.41
2023-01-28T21:18:21.328Z,2.51
2023-01-28T21:21:25.846Z,2.44
2023-01-28T21:24:28.989Z,2.46
2023-01-28T21:27:33.497Z,2.55
2023-01-28T21:30:36.316Z,2.64
2023-01-28T21:33:40.496Z,2.65
2023-01-28T21:36:43.563Z,2.59
2023-01-28T21:39:46.256Z,2.59
2023-01-28T21:42:48.892Z,2.68
2023-01-28T21:45:56.105Z,2.62
2023-01-28T21:49:01.283Z,2.54
2023-01-28T21:52:03.994Z,2.50
2023-01-28T21:55:07.561Z,2.46
2023-01-28T21:58:24.276Z,2.48
2023-01-28T22:01:27.616Z,2.48
2023-01-28T22:04:33.768Z,2.51
2023-01-28T22:07:36.459Z,2.49
2023-01-28T22:10:39.121Z,2.37
2023-01-28T22:13:42.680Z,2.51
2023-01-28T22:16:45.540Z,2.19
2023-01-28T22:19:49.894Z,2.04
2023-01-28T22:22:52.553Z,2.00
2023-01-28T22:25:55.916Z,2.17
2023-01-28T22:28:59.114Z,2.24
2023-01-28T22:32:04.083Z,2.29
2023-01-28T22:35:08.755Z,2.25
2023-01-28T22:38:11.595Z,2.29
2023-01-28T22:41:18.949Z,2.23
2023-01-28T22:44:21.588Z,2.13
2023-01-28T22:47:24.307Z,2.24
2023-01-28T22:50:28.519Z,2.24
2023-01-28T22:53:31.299Z,2.22
2023-01-28T22:56:33.886Z,2.24
2023-01-28T22:59:36.507Z,2.20
2023-01-28T23:02:39.198Z,2.25
2023-01-28T23:05:43.591Z,2.26
2023-01-28T23:08:47.005Z,2.29
2023-01-28T23:11:49.730Z,2.29
2023-01-28T23:15:10.185Z,2.29
2023-01-28T23:18:31.704Z,2.25
2023-01-28T23:21:54.873Z,2.30
2023-01-28T23:24:57.626Z,2.23
2023-01-28T23:28:01.247Z,2.05
2023-01-28T23:31:04.037Z,2.10
2023-01-28T23:34:07.514Z,2.08
2023-01-28T23:37:12.852Z,2.09
2023-01-28T23:40:16.721Z,2.11
2023-01-28T23:43:19.571Z,2.17
2023-01-28T23:46:37.831Z,2.18
2023-01-28T23:49:41.922Z,2.12
2023-01-28T23:52:46.141Z,2.09
2023-01-28T23:55:48.743Z,2.08
2023-01-28T23:58:51.500Z,2.10
